sensor_id;sensor_type;location;lat;lon;timestamp;temperature;humidity
9808;DHT22;4943;52.550;13.462;2023-09-19T00:00:40;20.50;99.90
9808;DHT22;4943;52.550;13.462;2023-09-19T00:03:09;20.50;99.90
9808;DHT22;4943;52.550;13.462;2023-09-19T00:05:39;20.40;99.90
9808;DHT22;4943;52.550;13.462;2023-09-19T00:08:12;20.40;99.90
9808;DHT22;4943;52.550;13.462;2023-09-19T00:10:41;20.40;99.90
9808;DHT22;4943;52.550;13.462;2023-09-19T00:13:09;20.40;99.90
9808;DHT22;4943;52.550;13.462;2023-09-19T00:15:44;20.40;99.90
9808;DHT22;4943;52.550;13.462;2023-09-19T00:18:16;20.30;99.90
9808;DHT22;4943;52.550;13.462;2023-09-19T00:20:46;20.30;99.90
9808;DHT22;4943;52.550;13.462;2023-09-19T00:23:16;20.30;99.90
9808;DHT22;4943;52.550;13.462;2023-09-19T00:25:46;20.30;99.90
9808;DHT22;4943;52.550;13.462;2023-09-19T00:28:15;20.30;99.90
9808;DHT22;4943;52.550;13.462;2023-09-19T00:30:45;20.30;99.90
9808;DHT22;4943;52.550;13.462;2023-09-19T00:33:17;20.30;99.90
9808;DHT22;4943;52.550;13.462;2023-09-19T00:35:48;20.20;99.90
9808;DHT22;4943;52.550;13.462;2023-09-19T00:38:16;20.20;99.90
9808;DHT22;4943;52.550;13.462;2023-09-19T00:40:46;20.20;99.90
9808;DHT22;4943;52.550;13.462;2023-09-19T00:43:15;20.10;99.90
9808;DHT22;4943;52.550;13.462;2023-09-19T00:45:48;20.10;99.90
9808;DHT22;4943;52.550;13.462;2023-09-19T00:48:19;20.10;99.90
9808;DHT22;4943;52.550;13.462;2023-09-19T00:50:48;20.10;99.90
9808;DHT22;4943;52.550;13.462;2023-09-19T00:53:19;20.00;99.90
9808;DHT22;4943;52.550;13.462;2023-09-19T00:55:50;20.00;99.90
9808;DHT22;4943;52.550;13.462;2023-09-19T00:58:19;20.00;99.90
9808;DHT22;4943;52.550;13.462;2023-09-19T01:00:49;20.00;99.90
9808;DHT22;4943;52.550;13.462;2023-09-19T01:03:18;20.00;99.90
9808;DHT22;4943;52.550;13.462;2023-09-19T01:05:46;20.00;99.90
9808;DHT22;4943;52.550;13.462;2023-09-19T01:08:15;20.00;99.90
9808;DHT22;4943;52.550;13.462;2023-09-19T01:10:49;20.00;99.90
9808;DHT22;4943;52.550;13.462;2023-09-19T01:13:25;20.00;99.90
9808;DHT22;4943;52.550;13.462;2023-09-19T01:16:03;20.00;99.90
9808;DHT22;4943;52.550;13.462;2023-09-19T01:18:40;20.00;99.90
9808;DHT22;4943;52.550;13.462;2023-09-19T01:21:18;19.90;99.90
9808;DHT22;4943;52.550;13.462;2023-09-19T01:24:09;19.90;99.90
9808;DHT22;4943;52.550;13.462;2023-09-19T01:27:02;20.00;99.90
9808;DHT22;4943;52.550;13.462;2023-09-19T01:29:37;20.00;99.90
9808;DHT22;4943;52.550;13.462;2023-09-19T01:32:08;19.90;99.90
9808;DHT22;4943;52.550;13.462;2023-09-19T01:34:47;19.90;99.90
9808;DHT22;4943;52.550;13.462;2023-09-19T01:37:19;19.90;99.90
9808;DHT22;4943;52.550;13.462;2023-09-19T01:39:57;20.00;99.90
9808;DHT22;4943;52.550;13.462;2023-09-19T01:42:43;20.00;99.90
9808;DHT22;4943;52.550;13.462;2023-09-19T01:45:12;20.00;99.90
9808;DHT22;4943;52.550;13.462;2023-09-19T01:47:48;20.00;99.90
9808;DHT22;4943;52.550;13.462;2023-09-19T01:50:26;20.10;99.90
9808;DHT22;4943;52.550;13.462;2023-09-19T01:53:03;20.10;99.90
9808;DHT22;4943;52.550;13.462;2023-09-19T01:55:36;20.10;99.90
9808;DHT22;4943;52.550;13.462;2023-09-19T01:58:08;20.10;99.90
9808;DHT22;4943;52.550;13.462;2023-09-19T02:00:43;20.10;99.90
9808;DHT22;4943;52.550;13.462;2023-09-19T02:03:14;20.10;99.90
9808;DHT22;4943;52.550;13.462;2023-09-19T02:05:48;20.10;99.90
9808;DHT22;4943;52.550;13.462;2023-09-19T02:08:18;20.10;99.90
9808;DHT22;4943;52.550;13.462;2023-09-19T02:10:47;20.00;99.90
9808;DHT22;4943;52.550;13.462;2023-09-19T02:13:16;20.00;99.90
9808;DHT22;4943;52.550;13.462;2023-09-19T02:15:46;20.00;99.90
9808;DHT22;4943;52.550;13.462;2023-09-19T02:18:15;20.00;99.90
9808;DHT22;4943;52.550;13.462;2023-09-19T02:20:44;19.90;99.90
9808;DHT22;4943;52.550;13.462;2023-09-19T02:23:13;19.90;99.90
9808;DHT22;4943;52.550;13.462;2023-09-19T02:25:42;19.90;99.90
9808;DHT22;4943;52.550;13.462;2023-09-19T02:28:10;19.90;99.90
9808;DHT22;4943;52.550;13.462;2023-09-19T02:30:39;19.90;99.90
9808;DHT22;4943;52.550;13.462;2023-09-19T02:33:07;19.80;99.90
9808;DHT22;4943;52.550;13.462;2023-09-19T02:35:37;19.80;99.90
9808;DHT22;4943;52.550;13.462;2023-09-19T02:38:05;19.80;99.90
9808;DHT22;4943;52.550;13.462;2023-09-19T02:40:38;19.80;99.90
9808;DHT22;4943;52.550;13.462;2023-09-19T02:43:06;19.80;99.90
9808;DHT22;4943;52.550;13.462;2023-09-19T02:45:35;19.80;99.90
9808;DHT22;4943;52.550;13.462;2023-09-19T02:48:04;19.80;99.90
9808;DHT22;4943;52.550;13.462;2023-09-19T02:50:33;19.80;99.90
9808;DHT22;4943;52.550;13.462;2023-09-19T02:53:04;19.80;99.90
9808;DHT22;4943;52.550;13.462;2023-09-19T02:55:33;19.80;99.90
9808;DHT22;4943;52.550;13.462;2023-09-19T02:58:01;19.80;99.90
9808;DHT22;4943;52.550;13.462;2023-09-19T03:00:32;19.80;99.90
9808;DHT22;4943;52.550;13.462;2023-09-19T03:03:00;19.80;99.90
9808;DHT22;4943;52.550;13.462;2023-09-19T03:05:29;19.80;99.90
9808;DHT22;4943;52.550;13.462;2023-09-19T03:07:58;19.80;99.90
9808;DHT22;4943;52.550;13.462;2023-09-19T03:10:29;19.80;99.90
9808;DHT22;4943;52.550;13.462;2023-09-19T03:12:58;19.80;99.90
9808;DHT22;4943;52.550;13.462;2023-09-19T03:15:26;19.80;99.90
9808;DHT22;4943;52.550;13.462;2023-09-19T03:17:54;19.80;99.90
9808;DHT22;4943;52.550;13.462;2023-09-19T03:20:23;19.70;99.90
9808;DHT22;4943;52.550;13.462;2023-09-19T03:22:52;19.70;99.90
9808;DHT22;4943;52.550;13.462;2023-09-19T03:25:20;19.70;99.90
9808;DHT22;4943;52.550;13.462;2023-09-19T03:27:51;19.70;99.90
9808;DHT22;4943;52.550;13.462;2023-09-19T03:30:19;19.70;99.90
9808;DHT22;4943;52.550;13.462;2023-09-19T03:32:48;19.70;99.90
9808;DHT22;4943;52.550;13.462;2023-09-19T03:35:17;19.70;99.90
9808;DHT22;4943;52.550;13.462;2023-09-19T03:37:46;19.70;99.90
9808;DHT22;4943;52.550;13.462;2023-09-19T03:40:14;19.70;99.90
9808;DHT22;4943;52.550;13.462;2023-09-19T03:42:43;19.70;99.90
9808;DHT22;4943;52.550;13.462;2023-09-19T03:45:13;19.70;99.90
9808;DHT22;4943;52.550;13.462;2023-09-19T03:47:42;19.70;99.90
9808;DHT22;4943;52.550;13.462;2023-09-19T03:50:10;19.70;99.90
9808;DHT22;4943;52.550;13.462;2023-09-19T03:52:38;19.70;99.90
9808;DHT22;4943;52.550;13.462;2023-09-19T03:55:07;19.60;99.90
9808;DHT22;4943;52.550;13.462;2023-09-19T03:57:36;19.60;99.90
9808;DHT22;4943;52.550;13.462;2023-09-19T04:00:06;19.60;99.90
9808;DHT22;4943;52.550;13.462;2023-09-19T04:02:40;19.60;99.90
9808;DHT22;4943;52.550;13.462;2023-09-19T04:05:08;19.60;99.90
9808;DHT22;4943;52.550;13.462;2023-09-19T04:07:37;19.60;99.90
9808;DHT22;4943;52.550;13.462;2023-09-19T04:10:06;19.60;99.90
9808;DHT22;4943;52.550;13.462;2023-09-19T04:12:35;19.50;99.90
9808;DHT22;4943;52.550;13.462;2023-09-19T04:15:04;19.50;99.90
9808;DHT22;4943;52.550;13.462;2023-09-19T04:17:33;19.50;99.90
9808;DHT22;4943;52.550;13.462;2023-09-19T04:20:03;19.50;99.90
9808;DHT22;4943;52.550;13.462;2023-09-19T04:22:34;19.50;99.90
9808;DHT22;4943;52.550;13.462;2023-09-19T04:25:02;19.50;99.90
9808;DHT22;4943;52.550;13.462;2023-09-19T04:27:30;19.50;99.90
9808;DHT22;4943;52.550;13.462;2023-09-19T04:29:58;19.40;99.90
9808;DHT22;4943;52.550;13.462;2023-09-19T04:32:28;19.40;99.90
9808;DHT22;4943;52.550;13.462;2023-09-19T04:34:59;19.40;99.90
9808;DHT22;4943;52.550;13.462;2023-09-19T04:37:31;19.40;99.90
9808;DHT22;4943;52.550;13.462;2023-09-19T04:40:00;19.40;99.90
9808;DHT22;4943;52.550;13.462;2023-09-19T04:42:28;19.30;99.90
9808;DHT22;4943;52.550;13.462;2023-09-19T04:44:57;19.30;99.90
9808;DHT22;4943;52.550;13.462;2023-09-19T04:47:26;19.30;99.90
9808;DHT22;4943;52.550;13.462;2023-09-19T04:49:54;19.30;99.90
9808;DHT22;4943;52.550;13.462;2023-09-19T04:52:23;19.30;99.90
9808;DHT22;4943;52.550;13.462;2023-09-19T04:54:53;19.30;99.90
9808;DHT22;4943;52.550;13.462;2023-09-19T04:57:21;19.30;99.90
9808;DHT22;4943;52.550;13.462;2023-09-19T04:59:49;19.30;99.90
9808;DHT22;4943;52.550;13.462;2023-09-19T05:02:17;19.30;99.90
9808;DHT22;4943;52.550;13.462;2023-09-19T05:04:45;19.30;99.90
9808;DHT22;4943;52.550;13.462;2023-09-19T05:07:14;19.30;99.90
9808;DHT22;4943;52.550;13.462;2023-09-19T05:09:42;19.30;99.90
9808;DHT22;4943;52.550;13.462;2023-09-19T05:12:11;19.30;99.90
9808;DHT22;4943;52.550;13.462;2023-09-19T05:14:39;19.20;99.90
9808;DHT22;4943;52.550;13.462;2023-09-19T05:17:08;19.20;99.90
9808;DHT22;4943;52.550;13.462;2023-09-19T05:19:36;19.20;99.90
9808;DHT22;4943;52.550;13.462;2023-09-19T05:22:05;19.20;99.90
9808;DHT22;4943;52.550;13.462;2023-09-19T05:24:33;19.20;99.90
9808;DHT22;4943;52.550;13.462;2023-09-19T05:27:02;19.20;99.90
9808;DHT22;4943;52.550;13.462;2023-09-19T05:29:32;19.20;99.90
9808;DHT22;4943;52.550;13.462;2023-09-19T05:32:01;19.20;99.90
9808;DHT22;4943;52.550;13.462;2023-09-19T05:34:30;19.20;99.90
9808;DHT22;4943;52.550;13.462;2023-09-19T05:36:58;19.20;99.90
9808;DHT22;4943;52.550;13.462;2023-09-19T05:39:26;19.20;99.90
9808;DHT22;4943;52.550;13.462;2023-09-19T05:41:55;19.20;99.90
9808;DHT22;4943;52.550;13.462;2023-09-19T05:44:24;19.20;99.90
9808;DHT22;4943;52.550;13.462;2023-09-19T05:46:53;19.20;99.90
9808;DHT22;4943;52.550;13.462;2023-09-19T05:49:23;19.20;99.90
9808;DHT22;4943;52.550;13.462;2023-09-19T05:51:52;19.20;99.90
9808;DHT22;4943;52.550;13.462;2023-09-19T05:54:22;19.20;99.90
9808;DHT22;4943;52.550;13.462;2023-09-19T05:56:50;19.20;99.90
9808;DHT22;4943;52.550;13.462;2023-09-19T05:59:19;19.30;99.90
9808;DHT22;4943;52.550;13.462;2023-09-19T06:01:48;19.30;99.90
9808;DHT22;4943;52.550;13.462;2023-09-19T06:04:17;19.30;99.90
9808;DHT22;4943;52.550;13.462;2023-09-19T06:06:46;19.30;99.90
9808;DHT22;4943;52.550;13.462;2023-09-19T06:09:15;19.40;99.90
9808;DHT22;4943;52.550;13.462;2023-09-19T06:11:44;19.40;99.90
9808;DHT22;4943;52.550;13.462;2023-09-19T06:14:12;19.40;99.90
9808;DHT22;4943;52.550;13.462;2023-09-19T06:16:41;19.40;99.90
9808;DHT22;4943;52.550;13.462;2023-09-19T06:19:10;19.50;99.90
9808;DHT22;4943;52.550;13.462;2023-09-19T06:21:40;19.50;99.90
9808;DHT22;4943;52.550;13.462;2023-09-19T06:24:08;19.60;99.90
9808;DHT22;4943;52.550;13.462;2023-09-19T06:26:37;19.70;99.90
9808;DHT22;4943;52.550;13.462;2023-09-19T06:29:05;19.70;99.90
9808;DHT22;4943;52.550;13.462;2023-09-19T06:31:34;19.80;99.90
9808;DHT22;4943;52.550;13.462;2023-09-19T06:34:02;19.80;99.90
9808;DHT22;4943;52.550;13.462;2023-09-19T06:36:31;19.90;99.90
9808;DHT22;4943;52.550;13.462;2023-09-19T06:39:00;19.90;99.90
9808;DHT22;4943;52.550;13.462;2023-09-19T06:41:30;20.00;99.90
9808;DHT22;4943;52.550;13.462;2023-09-19T06:43:58;20.00;99.90
9808;DHT22;4943;52.550;13.462;2023-09-19T06:46:27;20.10;99.90
9808;DHT22;4943;52.550;13.462;2023-09-19T06:48:59;20.20;99.90
9808;DHT22;4943;52.550;13.462;2023-09-19T06:51:27;20.20;99.90
9808;DHT22;4943;52.550;13.462;2023-09-19T06:53:56;20.30;99.90
9808;DHT22;4943;52.550;13.462;2023-09-19T06:56:26;20.40;99.90
9808;DHT22;4943;52.550;13.462;2023-09-19T06:58:54;20.40;99.90
9808;DHT22;4943;52.550;13.462;2023-09-19T07:01:22;20.60;99.90
9808;DHT22;4943;52.550;13.462;2023-09-19T07:03:52;20.70;99.90
9808;DHT22;4943;52.550;13.462;2023-09-19T07:06:20;20.90;99.90
9808;DHT22;4943;52.550;13.462;2023-09-19T07:08:48;20.90;99.90
9808;DHT22;4943;52.550;13.462;2023-09-19T07:11:17;21.00;99.90
9808;DHT22;4943;52.550;13.462;2023-09-19T07:13:46;21.20;99.90
9808;DHT22;4943;52.550;13.462;2023-09-19T07:16:15;21.40;99.90
9808;DHT22;4943;52.550;13.462;2023-09-19T07:18:54;21.50;99.90
9808;DHT22;4943;52.550;13.462;2023-09-19T07:21:23;21.70;99.90
9808;DHT22;4943;52.550;13.462;2023-09-19T07:23:52;21.80;99.90
9808;DHT22;4943;52.550;13.462;2023-09-19T07:26:20;21.80;99.90
9808;DHT22;4943;52.550;13.462;2023-09-19T07:28:49;21.90;99.90
9808;DHT22;4943;52.550;13.462;2023-09-19T07:31:17;21.90;99.90
9808;DHT22;4943;52.550;13.462;2023-09-19T07:33:45;21.90;99.90
9808;DHT22;4943;52.550;13.462;2023-09-19T07:36:13;21.80;99.90
9808;DHT22;4943;52.550;13.462;2023-09-19T07:38:41;21.70;99.90
9808;DHT22;4943;52.550;13.462;2023-09-19T07:41:10;21.60;99.90
9808;DHT22;4943;52.550;13.462;2023-09-19T07:43:38;21.60;99.90
9808;DHT22;4943;52.550;13.462;2023-09-19T07:46:08;21.50;99.90
9808;DHT22;4943;52.550;13.462;2023-09-19T07:48:37;21.40;99.90
9808;DHT22;4943;52.550;13.462;2023-09-19T07:51:05;21.30;99.90
9808;DHT22;4943;52.550;13.462;2023-09-19T07:53:35;21.30;99.90
9808;DHT22;4943;52.550;13.462;2023-09-19T07:56:05;21.20;99.90
9808;DHT22;4943;52.550;13.462;2023-09-19T07:58:34;21.30;99.90
9808;DHT22;4943;52.550;13.462;2023-09-19T08:01:04;21.50;99.90
9808;DHT22;4943;52.550;13.462;2023-09-19T08:03:34;21.50;99.90
9808;DHT22;4943;52.550;13.462;2023-09-19T08:06:07;21.60;99.90
9808;DHT22;4943;52.550;13.462;2023-09-19T08:08:37;21.60;99.90
9808;DHT22;4943;52.550;13.462;2023-09-19T08:11:06;21.70;99.90
9808;DHT22;4943;52.550;13.462;2023-09-19T08:13:38;21.80;99.90
9808;DHT22;4943;52.550;13.462;2023-09-19T08:16:10;21.80;99.90
9808;DHT22;4943;52.550;13.462;2023-09-19T08:18:40;21.80;99.90
9808;DHT22;4943;52.550;13.462;2023-09-19T08:21:11;21.70;99.90
9808;DHT22;4943;52.550;13.462;2023-09-19T08:23:43;21.60;99.90
9808;DHT22;4943;52.550;13.462;2023-09-19T08:26:12;21.50;99.90
9808;DHT22;4943;52.550;13.462;2023-09-19T08:28:41;21.40;99.90
9808;DHT22;4943;52.550;13.462;2023-09-19T08:31:09;21.30;99.90
9808;DHT22;4943;52.550;13.462;2023-09-19T08:33:38;21.30;99.90
9808;DHT22;4943;52.550;13.462;2023-09-19T08:36:08;21.30;99.90
9808;DHT22;4943;52.550;13.462;2023-09-19T08:38:36;21.30;99.90
9808;DHT22;4943;52.550;13.462;2023-09-19T08:41:06;21.30;99.90
9808;DHT22;4943;52.550;13.462;2023-09-19T08:43:35;21.30;99.90
9808;DHT22;4943;52.550;13.462;2023-09-19T08:46:10;21.20;99.90
9808;DHT22;4943;52.550;13.462;2023-09-19T08:48:43;21.20;99.90
9808;DHT22;4943;52.550;13.462;2023-09-19T08:51:21;21.10;99.90
9808;DHT22;4943;52.550;13.462;2023-09-19T08:54:01;21.00;99.90
9808;DHT22;4943;52.550;13.462;2023-09-19T08:56:32;20.90;99.90
9808;DHT22;4943;52.550;13.462;2023-09-19T08:59:03;20.90;99.90
9808;DHT22;4943;52.550;13.462;2023-09-19T09:01:34;20.90;99.90
9808;DHT22;4943;52.550;13.462;2023-09-19T09:04:06;20.90;99.90
9808;DHT22;4943;52.550;13.462;2023-09-19T09:06:37;20.90;99.90
9808;DHT22;4943;52.550;13.462;2023-09-19T09:09:06;21.00;99.90
9808;DHT22;4943;52.550;13.462;2023-09-19T09:11:36;21.00;99.90
9808;DHT22;4943;52.550;13.462;2023-09-19T09:14:07;21.00;99.90
9808;DHT22;4943;52.550;13.462;2023-09-19T09:16:35;21.00;99.90
9808;DHT22;4943;52.550;13.462;2023-09-19T09:19:03;21.10;99.90
9808;DHT22;4943;52.550;13.462;2023-09-19T09:21:32;21.10;99.90
9808;DHT22;4943;52.550;13.462;2023-09-19T09:24:27;21.20;99.90
9808;DHT22;4943;52.550;13.462;2023-09-19T09:26:56;21.30;99.90
9808;DHT22;4943;52.550;13.462;2023-09-19T09:29:42;21.40;99.90
9808;DHT22;4943;52.550;13.462;2023-09-19T09:32:20;21.50;99.90
9808;DHT22;4943;52.550;13.462;2023-09-19T09:34:51;21.70;99.90
9808;DHT22;4943;52.550;13.462;2023-09-19T09:37:20;21.90;99.90
9808;DHT22;4943;52.550;13.462;2023-09-19T09:39:54;22.10;99.90
9808;DHT22;4943;52.550;13.462;2023-09-19T09:42:32;22.30;99.90
9808;DHT22;4943;52.550;13.462;2023-09-19T09:45:17;22.50;99.90
9808;DHT22;4943;52.550;13.462;2023-09-19T09:47:47;22.60;99.90
9808;DHT22;4943;52.550;13.462;2023-09-19T09:50:29;22.60;99.90
9808;DHT22;4943;52.550;13.462;2023-09-19T09:53:20;22.60;99.90
9808;DHT22;4943;52.550;13.462;2023-09-19T09:56:00;22.70;99.90
9808;DHT22;4943;52.550;13.462;2023-09-19T09:58:29;22.80;99.90
9808;DHT22;4943;52.550;13.462;2023-09-19T10:00:59;22.90;99.90
9808;DHT22;4943;52.550;13.462;2023-09-19T10:03:32;23.00;99.90
9808;DHT22;4943;52.550;13.462;2023-09-19T10:06:10;23.00;99.90
9808;DHT22;4943;52.550;13.462;2023-09-19T10:08:58;23.00;99.90
9808;DHT22;4943;52.550;13.462;2023-09-19T10:11:34;23.00;99.90
9808;DHT22;4943;52.550;13.462;2023-09-19T10:14:05;23.00;99.90
9808;DHT22;4943;52.550;13.462;2023-09-19T10:16:40;22.90;99.90
9808;DHT22;4943;52.550;13.462;2023-09-19T10:19:09;22.80;99.90
9808;DHT22;4943;52.550;13.462;2023-09-19T10:21:37;22.70;99.90
9808;DHT22;4943;52.550;13.462;2023-09-19T10:24:08;22.70;99.90
9808;DHT22;4943;52.550;13.462;2023-09-19T10:26:38;22.80;99.90
9808;DHT22;4943;52.550;13.462;2023-09-19T10:29:10;22.90;99.90
9808;DHT22;4943;52.550;13.462;2023-09-19T10:31:42;23.00;99.90
9808;DHT22;4943;52.550;13.462;2023-09-19T10:34:15;22.90;99.60
9808;DHT22;4943;52.550;13.462;2023-09-19T10:36:45;22.90;99.20
9808;DHT22;4943;52.550;13.462;2023-09-19T10:39:15;22.80;99.30
9808;DHT22;4943;52.550;13.462;2023-09-19T10:41:51;22.80;99.00
9808;DHT22;4943;52.550;13.462;2023-09-19T10:44:23;22.80;99.10
9808;DHT22;4943;52.550;13.462;2023-09-19T10:46:52;22.80;99.10
9808;DHT22;4943;52.550;13.462;2023-09-19T10:49:21;22.80;98.90
9808;DHT22;4943;52.550;13.462;2023-09-19T10:51:52;22.80;98.60
9808;DHT22;4943;52.550;13.462;2023-09-19T10:54:25;22.80;98.30
9808;DHT22;4943;52.550;13.462;2023-09-19T10:56:56;22.80;98.20
9808;DHT22;4943;52.550;13.462;2023-09-19T10:59:26;22.80;98.00
9808;DHT22;4943;52.550;13.462;2023-09-19T11:02:16;22.80;98.00
9808;DHT22;4943;52.550;13.462;2023-09-19T11:04:45;22.70;98.00
9808;DHT22;4943;52.550;13.462;2023-09-19T11:07:15;22.70;97.90
9808;DHT22;4943;52.550;13.462;2023-09-19T11:09:48;22.60;97.50
9808;DHT22;4943;52.550;13.462;2023-09-19T11:12:50;22.60;97.70
9808;DHT22;4943;52.550;13.462;2023-09-19T11:18:52;22.60;97.50
9808;DHT22;4943;52.550;13.462;2023-09-19T11:21:52;22.80;97.40
9808;DHT22;4943;52.550;13.462;2023-09-19T11:24:31;22.80;97.10
9808;DHT22;4943;52.550;13.462;2023-09-19T11:27:13;22.80;97.00
9808;DHT22;4943;52.550;13.462;2023-09-19T11:29:45;22.80;96.60
9808;DHT22;4943;52.550;13.462;2023-09-19T11:32:16;22.80;96.80
9808;DHT22;4943;52.550;13.462;2023-09-19T11:34:47;22.90;96.80
9808;DHT22;4943;52.550;13.462;2023-09-19T11:40:34;22.80;96.40
9808;DHT22;4943;52.550;13.462;2023-09-19T11:43:29;22.80;96.10
9808;DHT22;4943;52.550;13.462;2023-09-19T11:46:10;22.90;96.00
9808;DHT22;4943;52.550;13.462;2023-09-19T11:48:41;22.80;96.20
9808;DHT22;4943;52.550;13.462;2023-09-19T11:51:15;22.80;95.40
9808;DHT22;4943;52.550;13.462;2023-09-19T11:53:51;22.70;95.80
9808;DHT22;4943;52.550;13.462;2023-09-19T11:56:20;22.70;95.90
9808;DHT22;4943;52.550;13.462;2023-09-19T11:58:52;22.70;95.50
9808;DHT22;4943;52.550;13.462;2023-09-19T12:01:29;22.70;95.30
9808;DHT22;4943;52.550;13.462;2023-09-19T12:04:00;22.70;95.50
9808;DHT22;4943;52.550;13.462;2023-09-19T12:06:30;22.80;95.50
9808;DHT22;4943;52.550;13.462;2023-09-19T12:08:59;22.90;95.30
9808;DHT22;4943;52.550;13.462;2023-09-19T12:11:30;23.00;95.70
9808;DHT22;4943;52.550;13.462;2023-09-19T12:14:01;23.10;95.80
9808;DHT22;4943;52.550;13.462;2023-09-19T12:16:32;23.10;95.50
9808;DHT22;4943;52.550;13.462;2023-09-19T12:19:19;23.20;95.60
9808;DHT22;4943;52.550;13.462;2023-09-19T12:21:56;23.40;95.60
9808;DHT22;4943;52.550;13.462;2023-09-19T12:24:27;23.40;95.20
9808;DHT22;4943;52.550;13.462;2023-09-19T12:27:01;23.50;95.30
9808;DHT22;4943;52.550;13.462;2023-09-19T12:29:32;23.60;95.40
9808;DHT22;4943;52.550;13.462;2023-09-19T12:32:04;23.70;95.10
9808;DHT22;4943;52.550;13.462;2023-09-19T12:34:33;23.80;95.10
9808;DHT22;4943;52.550;13.462;2023-09-19T12:37:07;23.90;95.00
9808;DHT22;4943;52.550;13.462;2023-09-19T12:39:40;24.00;94.90
9808;DHT22;4943;52.550;13.462;2023-09-19T12:42:10;24.10;94.50
9808;DHT22;4943;52.550;13.462;2023-09-19T12:44:42;24.20;94.40
9808;DHT22;4943;52.550;13.462;2023-09-19T12:47:14;24.20;94.40
9808;DHT22;4943;52.550;13.462;2023-09-19T12:50:06;24.30;93.80
9808;DHT22;4943;52.550;13.462;2023-09-19T12:52:41;24.30;93.10
9808;DHT22;4943;52.550;13.462;2023-09-19T12:55:20;24.20;93.00
9808;DHT22;4943;52.550;13.462;2023-09-19T12:57:59;24.20;93.00
9808;DHT22;4943;52.550;13.462;2023-09-19T13:00:33;24.30;93.20
9808;DHT22;4943;52.550;13.462;2023-09-19T13:03:17;24.30;92.70
9808;DHT22;4943;52.550;13.462;2023-09-19T13:05:53;24.30;92.50
9808;DHT22;4943;52.550;13.462;2023-09-19T13:08:24;24.20;92.70
9808;DHT22;4943;52.550;13.462;2023-09-19T13:11:06;24.20;92.60
9808;DHT22;4943;52.550;13.462;2023-09-19T13:13:41;24.20;92.70
9808;DHT22;4943;52.550;13.462;2023-09-19T13:16:15;24.20;92.60
9808;DHT22;4943;52.550;13.462;2023-09-19T13:18:49;24.20;92.70
9808;DHT22;4943;52.550;13.462;2023-09-19T13:21:28;24.20;92.20
9808;DHT22;4943;52.550;13.462;2023-09-19T13:24:17;24.30;92.70
9808;DHT22;4943;52.550;13.462;2023-09-19T13:26:45;24.30;92.70
9808;DHT22;4943;52.550;13.462;2023-09-19T13:29:13;24.30;92.90
9808;DHT22;4943;52.550;13.462;2023-09-19T13:31:46;24.30;92.70
9808;DHT22;4943;52.550;13.462;2023-09-19T13:34:16;24.30;92.40
9808;DHT22;4943;52.550;13.462;2023-09-19T13:36:45;24.30;92.10
9808;DHT22;4943;52.550;13.462;2023-09-19T13:39:15;24.30;92.20
9808;DHT22;4943;52.550;13.462;2023-09-19T13:41:44;24.10;92.10
9808;DHT22;4943;52.550;13.462;2023-09-19T13:44:13;24.10;91.90
9808;DHT22;4943;52.550;13.462;2023-09-19T13:46:41;24.00;92.20
9808;DHT22;4943;52.550;13.462;2023-09-19T13:49:13;24.10;92.00
9808;DHT22;4943;52.550;13.462;2023-09-19T13:51:42;24.00;91.90
9808;DHT22;4943;52.550;13.462;2023-09-19T13:54:11;24.10;92.10
9808;DHT22;4943;52.550;13.462;2023-09-19T13:56:41;24.10;92.20
9808;DHT22;4943;52.550;13.462;2023-09-19T13:59:09;24.10;92.10
9808;DHT22;4943;52.550;13.462;2023-09-19T14:01:37;24.20;92.20
9808;DHT22;4943;52.550;13.462;2023-09-19T14:04:07;24.20;92.20
9808;DHT22;4943;52.550;13.462;2023-09-19T14:06:37;24.30;92.10
9808;DHT22;4943;52.550;13.462;2023-09-19T14:09:06;24.20;92.00
9808;DHT22;4943;52.550;13.462;2023-09-19T14:11:35;24.20;91.70
9808;DHT22;4943;52.550;13.462;2023-09-19T14:14:03;24.20;91.90
9808;DHT22;4943;52.550;13.462;2023-09-19T14:16:31;24.20;91.80
9808;DHT22;4943;52.550;13.462;2023-09-19T14:19:00;24.30;91.80
9808;DHT22;4943;52.550;13.462;2023-09-19T14:21:28;24.30;91.80
9808;DHT22;4943;52.550;13.462;2023-09-19T14:23:56;24.30;91.80
9808;DHT22;4943;52.550;13.462;2023-09-19T14:26:25;24.40;91.80
9808;DHT22;4943;52.550;13.462;2023-09-19T14:28:53;24.40;91.60
9808;DHT22;4943;52.550;13.462;2023-09-19T14:31:22;24.30;91.50
9808;DHT22;4943;52.550;13.462;2023-09-19T14:33:53;24.30;91.50
9808;DHT22;4943;52.550;13.462;2023-09-19T14:36:22;24.30;91.70
9808;DHT22;4943;52.550;13.462;2023-09-19T14:38:53;24.30;91.70
9808;DHT22;4943;52.550;13.462;2023-09-19T14:41:22;24.30;91.70
9808;DHT22;4943;52.550;13.462;2023-09-19T14:43:53;24.30;91.40
9808;DHT22;4943;52.550;13.462;2023-09-19T14:46:22;24.30;91.60
9808;DHT22;4943;52.550;13.462;2023-09-19T14:48:51;24.30;91.70
9808;DHT22;4943;52.550;13.462;2023-09-19T14:51:19;24.30;91.50
9808;DHT22;4943;52.550;13.462;2023-09-19T14:53:47;24.20;91.40
9808;DHT22;4943;52.550;13.462;2023-09-19T14:56:16;24.20;91.60
9808;DHT22;4943;52.550;13.462;2023-09-19T14:58:47;24.20;91.60
9808;DHT22;4943;52.550;13.462;2023-09-19T15:01:16;24.20;91.70
9808;DHT22;4943;52.550;13.462;2023-09-19T15:03:44;24.20;91.70
9808;DHT22;4943;52.550;13.462;2023-09-19T15:06:13;24.20;91.80
9808;DHT22;4943;52.550;13.462;2023-09-19T15:08:44;24.10;91.70
9808;DHT22;4943;52.550;13.462;2023-09-19T15:11:14;24.10;91.80
9808;DHT22;4943;52.550;13.462;2023-09-19T15:13:45;24.10;91.80
9808;DHT22;4943;52.550;13.462;2023-09-19T15:16:13;24.10;91.80
9808;DHT22;4943;52.550;13.462;2023-09-19T15:18:45;24.00;91.60
9808;DHT22;4943;52.550;13.462;2023-09-19T15:21:15;24.00;91.60
9808;DHT22;4943;52.550;13.462;2023-09-19T15:23:43;23.90;91.50
9808;DHT22;4943;52.550;13.462;2023-09-19T15:26:14;23.90;91.40
9808;DHT22;4943;52.550;13.462;2023-09-19T15:28:44;23.90;91.50
9808;DHT22;4943;52.550;13.462;2023-09-19T15:31:13;23.80;91.50
9808;DHT22;4943;52.550;13.462;2023-09-19T15:33:42;23.80;91.50
9808;DHT22;4943;52.550;13.462;2023-09-19T15:36:12;23.80;91.40
9808;DHT22;4943;52.550;13.462;2023-09-19T15:38:57;23.70;91.50
9808;DHT22;4943;52.550;13.462;2023-09-19T15:41:27;23.70;91.40
9808;DHT22;4943;52.550;13.462;2023-09-19T15:43:56;23.60;91.40
9808;DHT22;4943;52.550;13.462;2023-09-19T15:46:26;23.60;91.40
9808;DHT22;4943;52.550;13.462;2023-09-19T15:48:56;23.50;91.40
9808;DHT22;4943;52.550;13.462;2023-09-19T15:51:24;23.50;91.50
9808;DHT22;4943;52.550;13.462;2023-09-19T15:53:54;23.60;91.60
9808;DHT22;4943;52.550;13.462;2023-09-19T15:56:24;23.60;91.50
9808;DHT22;4943;52.550;13.462;2023-09-19T15:58:54;23.50;91.60
9808;DHT22;4943;52.550;13.462;2023-09-19T16:01:23;23.60;91.60
9808;DHT22;4943;52.550;13.462;2023-09-19T16:03:52;23.60;92.20
9808;DHT22;4943;52.550;13.462;2023-09-19T16:06:25;23.60;91.80
9808;DHT22;4943;52.550;13.462;2023-09-19T16:08:55;23.70;91.80
9808;DHT22;4943;52.550;13.462;2023-09-19T16:11:26;23.80;91.80
9808;DHT22;4943;52.550;13.462;2023-09-19T16:13:55;23.70;91.70
9808;DHT22;4943;52.550;13.462;2023-09-19T16:16:25;23.80;91.70